WetterOnline ( https://www.wetteronline.de )

Wetter aktuell Heddesheim

Aktuelles Wetter: Mannheim (100m)

6-stündlich | Neueste Meldungen
Ortszeit Temperatur Wetter
Do, 29.07. 2:00 15.6° C wolkenlos
Mi, 28.07. 20:00 20.9° C bedeckt
Mi, 28.07. 14:00 22.7° C wolkig
Mi, 28.07. 8:00 17.0° C wolkig
Mi, 28.07. 2:00 17.2° C Regen
Di, 27.07. 20:00 22.9° C bedeckt
Di, 27.07. 14:00 24.1° C bedeckt
Di, 27.07. 8:00 18.1° C fast wolkenlos
Ortszeit Temperatur Wetter
Do, 29.07. 5:30 15.2° C bewölkt
Do, 29.07. 5:20 15.2° C bewölkt
Do, 29.07. 5:10 15.1° C wolkig
Do, 29.07. 5:00 14.8° C leicht bewölkt
Do, 29.07. 4:50 14.8° C leicht bewölkt
Do, 29.07. 4:40 14.9° C leicht bewölkt
Do, 29.07. 4:30 14.7° C fast wolkenlos
Do, 29.07. 4:00 14.2° C leicht bewölkt
Do, 29.07. 3:30 14.4° C wolkenlos
Do, 29.07. 3:00 15.1° C wolkenlos
Do, 29.07. 2:30 15.4° C wolkenlos
Ortszeit Relative Feuchte Sichtweite
Do, 29.07. 2:00 96% 30 km
Mi, 28.07. 20:00 75% 65 km
Mi, 28.07. 14:00 69% 40 km
Mi, 28.07. 8:00 94% 20 km
Mi, 28.07. 2:00 94% 22 km
Di, 27.07. 20:00 69% 35 km
Di, 27.07. 14:00 58% 45 km
Di, 27.07. 8:00 88% 30 km
Ortszeit Relative Feuchte Sichtweite
Do, 29.07. 5:30 94% 35 km
Do, 29.07. 5:20 94% -
Do, 29.07. 5:10 93% -
Do, 29.07. 5:00 94% 35 km
Do, 29.07. 4:50 94% -
Do, 29.07. 4:40 94% -
Do, 29.07. 4:30 94% 35 km
Do, 29.07. 4:00 96% 30 km
Do, 29.07. 3:30 97% 29 km
Do, 29.07. 3:00 96% 30 km
Do, 29.07. 2:30 96% 29 km
Ortszeit Niederschlagsmenge Niederschlagsart
Do, 29.07. 2:00 0.0 l/m2 in 6 Std. -
Mi, 28.07. 20:00 0.1 l/m2 in 12 Std. Regen
Mi, 28.07. 14:00 0.0 l/m2 in 6 Std. -
Mi, 28.07. 8:00 7 l/m2 in 12 Std. -
Mi, 28.07. 2:00 7 l/m2 in 6 Std. Regen
Di, 27.07. 20:00 0.0 l/m2 in 12 Std. -
Di, 27.07. 14:00 0.0 l/m2 in 6 Std. -
Di, 27.07. 8:00 0.0 l/m2 in 12 Std. -
Ortszeit Niederschlagsmenge Niederschlagsart
Do, 29.07. 5:30 0.0 l/m2 in 1 Std. -
Do, 29.07. 5:20 keine Meldung -
Do, 29.07. 5:10 keine Meldung -
Do, 29.07. 5:00 0.0 l/m2 in 1 Std. -
Do, 29.07. 4:50 keine Meldung -
Do, 29.07. 4:40 keine Meldung -
Do, 29.07. 4:30 0.0 l/m2 in 1 Std. -
Do, 29.07. 4:00 0.0 l/m2 in 1 Std. -
Do, 29.07. 3:30 0.0 l/m2 in 1 Std. -
Do, 29.07. 3:00 0.0 l/m2 in 1 Std. -
Do, 29.07. 2:30 0.0 l/m2 in 1 Std. -
Ortszeit Stärke Spitze Richtung
km/h Bft. km/h Grad Sektor
Do, 29.07. 2:00 9 2 22 170° S
Mi, 28.07. 20:00 11 2 40 170° S
Mi, 28.07. 14:00 18 3 32 180° S
Mi, 28.07. 8:00 7 2 14 180° S
Mi, 28.07. 2:00 7 2 29 140° SO
Di, 27.07. 20:00 4 1 32 220° SW
Di, 27.07. 14:00 7 2 25 170° S
Di, 27.07. 8:00 9 2 19 170° S
Ortszeit Stärke Spitze Richtung
km/h Bft. km/h Grad Sektor
Do, 29.07. 5:30 11 2 22 170° S
Do, 29.07. 5:20 11 2 - 170° S
Do, 29.07. 5:10 11 2 - 170° S
Do, 29.07. 5:00 13 3 19 170° S
Do, 29.07. 4:50 13 3 - 170° S
Do, 29.07. 4:40 13 3 - 160° S
Do, 29.07. 4:30 11 2 18 160° S
Do, 29.07. 4:00 7 2 11 170° S
Do, 29.07. 3:30 7 2 11 180° S
Do, 29.07. 3:00 7 2 14 170° S
Do, 29.07. 2:30 9 2 15 170° S
Ortszeit Untergrenze Bedeckung Gattung
total tief tief mittel hoch
Do, 29.07. 2:00 - 0/8 0/8 - - -
Mi, 28.07. 20:00 2700 m 8/8 8/8 - - -
Mi, 28.07. 14:00 870 m 6/8 6/8 - - -
Mi, 28.07. 8:00 1470 m 8/8 2/8 - - -
Mi, 28.07. 2:00 1800 m 8/8 2/8 - - -
Di, 27.07. 20:00 3900 m 8/8 8/8 - - -
Di, 27.07. 14:00 3900 m 8/8 8/8 - - -
Di, 27.07. 8:00 9000 m 2/8 0/8 - - -
Ortszeit Bedeckungsgrad in Achtel und Wolkenuntergrenze
Do, 29.07. 5:30 5(1410m) 7(2400m)
Do, 29.07. 5:20 5(1410m) 7(2400m)
Do, 29.07. 5:10 3(1410m) 6(2400m)
Do, 29.07. 5:00 2(1500m) 4(2400m)
Do, 29.07. 4:50 2(1500m) 4(2400m)
Do, 29.07. 4:40 1(1500m) 4(2400m)
Do, 29.07. 4:30 2(2400m)
Do, 29.07. 4:00 2(2400m)
Do, 29.07. 3:30 keine Wolken
Do, 29.07. 3:00 keine Wolken
Do, 29.07. 2:30 keine Wolken
Ortszeit Luftdruck NN (hPa) Tendenz (hPa in 3 Std.)
Do, 29.07. 2:00 1015 + 0,3
Mi, 28.07. 20:00 1013 - 0,2
Mi, 28.07. 14:00 1013 - 0,8
Mi, 28.07. 8:00 1014 + 0,4
Mi, 28.07. 2:00 1013 - 0,5
Di, 27.07. 20:00 1011 - 1,0
Di, 27.07. 14:00 1014 - 0,7
Di, 27.07. 8:00 1015 + 0,3
Ortszeit Luftdruck NN (hPa) Tendenz (hPa in 3 Std.)
Do, 29.07. 5:30 1014 - 0,2
Do, 29.07. 5:20 1014 keine Meldung
Do, 29.07. 5:10 1014 keine Meldung
Do, 29.07. 5:00 1014 - 0,5
Do, 29.07. 4:50 1014 keine Meldung
Do, 29.07. 4:40 1014 keine Meldung
Do, 29.07. 4:30 1014 - 1,0
Do, 29.07. 4:00 1014 - 0,6
Do, 29.07. 3:30 1014 - 0,6
Do, 29.07. 3:00 1014 - 0,3
Do, 29.07. 2:30 1014 0,0
Ortszeit Schneehöhe (cm)
Do, 29.07. 2:00 -
Mi, 28.07. 20:00 -
Mi, 28.07. 14:00 -
Mi, 28.07. 8:00 -
Mi, 28.07. 2:00 -
Di, 27.07. 20:00 -
Di, 27.07. 14:00 -
Di, 27.07. 8:00 -
Ortszeit Schneehöhe (cm)
Do, 29.07. 5:30 -
Do, 29.07. 5:20 -
Do, 29.07. 5:10 -
Do, 29.07. 5:00 -
Do, 29.07. 4:50 -
Do, 29.07. 4:40 -
Do, 29.07. 4:30 -
Do, 29.07. 4:00 -
Do, 29.07. 3:30 -
Do, 29.07. 3:00 -
Do, 29.07. 2:30 -
Link zu dieser Seite / Seite empfehlen

Das Wetter in ...